Time;durP1;ratioP1;P1;durP2;ratioP2;P2;SDS_P1;SDS_P2;PMS_P1;PMS_P2;Temp;Humidity;BMP_temperature;BMP_pressure;BME280_temperature;BME280_humidity;BME280_pressure;Samples;Min_cycle;Max_cycle;Signal;HPM_P1;HPM_P2
2023/08/17 01:10:12;;;;;;;3.40;0.68;;;;;;;18.76;67.91;102177.94;4993586;28;96828;-27
2023/08/17 01:12:40;;;;;;;0.80;0.50;;;;;;;18.74;69.09;102174.47;4995369;28;99380;-27
2023/08/17 01:15:19;;;;;;;0.95;0.60;;;;;;;18.70;68.56;102161.94;4996848;28;97434;-27
2023/08/17 01:18:00;;;;;;;1.02;0.57;;;;;;;18.68;68.54;102170.28;4994848;28;96675;-26
2023/08/17 01:20:26;;;;;;;3.38;0.70;;;;;;;18.63;68.49;102159.66;4995016;28;96808;-27
2023/08/17 01:22:56;;;;;;;1.33;0.75;;;;;;;18.63;68.14;102159.66;4995191;28;99468;-26
2023/08/17 01:25:22;;;;;;;1.52;0.60;;;;;;;18.62;68.44;102166.16;4995780;28;99203;-27
2023/08/17 01:27:47;;;;;;;3.08;1.05;;;;;;;18.62;68.59;102166.16;4996053;28;97086;-27
2023/08/17 01:30:16;;;;;;;1.08;0.55;;;;;;;18.61;68.60;102163.50;4996177;28;96819;-26
2023/08/17 01:33:00;;;;;;;1.38;0.82;;;;;;;18.55;68.82;102169.47;4995773;28;98054;-26
2023/08/17 01:35:32;;;;;;;0.85;0.57;;;;;;;18.47;68.80;102170.00;4994052;28;100981;-27
2023/08/17 01:38:06;;;;;;;1.08;0.60;;;;;;;18.45;68.60;102164.66;4996001;28;96718;-27
2023/08/17 01:40:33;;;;;;;0.98;0.55;;;;;;;18.38;69.23;102157.00;4994885;28;96716;-27
2023/08/17 01:42:59;;;;;;;0.32;0.30;;;;;;;18.42;69.26;102167.63;4994257;28;101251;-26
2023/08/17 01:45:25;;;;;;;1.08;0.70;;;;;;;18.45;69.12;102167.41;4993961;28;101036;-28
2023/08/17 01:47:50;;;;;;;1.40;0.75;;;;;;;18.41;69.39;102160.38;4994875;28;96718;-26
2023/08/17 01:50:16;;;;;;;0.63;0.60;;;;;;;18.44;69.88;102162.00;4995743;28;96853;-26
2023/08/17 01:52:41;;;;;;;0.73;0.52;;;;;;;18.40;69.51;102153.16;4995390;28;99759;-26
2023/08/17 01:55:08;;;;;;;1.00;0.60;;;;;;;18.43;69.04;102155.66;4995409;28;98836;-26
2023/08/17 01:57:33;;;;;;;1.27;0.65;;;;;;;18.39;69.38;102159.59;4994330;28;96829;-26
2023/08/17 02:00:00;;;;;;;0.95;0.60;;;;;;;18.43;69.78;102163.03;4995701;28;96945;-27
2023/08/17 02:02:26;;;;;;;2.17;0.68;;;;;;;18.37;69.87;102149.75;4993657;28;100884;-26
2023/08/17 02:04:51;;;;;;;2.28;0.70;;;;;;;18.38;69.37;102152.38;4994424;28;97875;-26
2023/08/17 02:07:16;;;;;;;1.40;0.60;;;;;;;18.31;69.89;102147.47;4995514;28;96593;-26
2023/08/17 02:09:42;;;;;;;1.85;0.60;;;;;;;18.32;69.52;102154.69;4995027;28;96523;-26
2023/08/17 02:12:08;;;;;;;2.60;0.55;;;;;;;18.29;69.65;102160.41;4994549;28;97556;-26
2023/08/17 02:14:33;;;;;;;2.00;0.70;;;;;;;18.27;69.71;102148.69;4995002;28;99164;-26
2023/08/17 02:16:59;;;;;;;1.15;0.57;;;;;;;18.28;69.55;102158.63;4995068;28;96586;-27
2023/08/17 02:19:24;;;;;;;1.38;0.70;;;;;;;18.24;69.89;102150.66;4995967;28;96795;-26
2023/08/17 02:21:49;;;;;;;1.60;0.63;;;;;;;18.25;70.33;102146.03;4995064;28;97549;-26
2023/08/17 02:24:15;;;;;;;0.45;0.40;;;;;;;18.29;69.46;102146.69;4994757;28;99529;-27
2023/08/17 02:26:40;;;;;;;0.60;0.55;;;;;;;18.27;70.43;102151.41;4995311;28;96691;-26
2023/08/17 02:29:05;;;;;;;0.73;0.50;;;;;;;18.17;70.65;102149.34;4995530;28;96709;-26
2023/08/17 02:31:31;;;;;;;1.20;0.75;;;;;;;18.17;70.69;102145.72;4994836;28;97807;-27
2023/08/17 02:34:00;;;;;;;1.13;0.88;;;;;;;18.10;70.72;102139.81;4994883;28;97440;-27
2023/08/17 02:36:26;;;;;;;0.75;0.65;;;;;;;18.08;70.25;102144.53;4994487;28;96562;-26
2023/08/17 02:38:52;;;;;;;1.92;0.60;;;;;;;18.02;71.03;102134.88;4993458;28;96907;-26
2023/08/17 02:41:17;;;;;;;1.02;0.70;;;;;;;18.10;70.66;102139.81;4994891;28;97866;-26
2023/08/17 02:43:42;;;;;;;3.08;0.70;;;;;;;18.07;70.62;102142.78;4994867;28;97219;-27
2023/08/17 02:46:09;;;;;;;2.40;0.75;;;;;;;18.08;70.76;102139.03;4994090;28;96653;-27
2023/08/17 02:48:34;;;;;;;3.55;0.82;;;;;;;17.97;71.40;102127.97;4994690;28;96822;-27
2023/08/17 02:51:00;;;;;;;1.98;0.73;;;;;;;17.96;71.24;102135.31;4994368;28;98847;-26
2023/08/17 02:53:25;;;;;;;2.13;0.95;;;;;;;17.85;71.41;102132.47;4995082;28;97313;-26
2023/08/17 02:55:50;;;;;;;1.55;0.93;;;;;;;17.82;71.75;102135.44;4994808;28;96798;-28
2023/08/17 02:58:16;;;;;;;1.08;0.70;;;;;;;17.87;71.97;102143.34;4994682;28;96833;-26
2023/08/17 03:00:41;;;;;;;1.67;0.60;;;;;;;17.82;71.68;102141.78;4993656;28;99453;-26
2023/08/17 03:03:07;;;;;;;2.55;0.50;;;;;;;17.87;71.94;102140.59;4993015;28;100826;-26
2023/08/17 03:05:33;;;;;;;1.50;0.93;;;;;;;17.93;72.20;102145.66;4994628;28;96471;-27
2023/08/17 03:07:58;;;;;;;2.80;0.60;;;;;;;17.87;71.87;102137.84;4992953;28;96959;-27
2023/08/17 03:10:24;;;;;;;3.65;0.63;;;;;;;17.88;71.37;102143.22;4993582;28;98842;-26
2023/08/17 03:12:50;;;;;;;2.53;0.93;;;;;;;17.85;71.76;102151.66;4994252;28;99470;-26
2023/08/17 03:15:16;;;;;;;3.60;0.88;;;;;;;17.83;71.84;102148.19;4993101;28;96763;-26
2023/08/17 03:17:41;;;;;;;1.92;0.90;;;;;;;17.78;72.36;102150.31;4994984;28;96796;-26
2023/08/17 03:20:07;;;;;;;0.88;0.55;;;;;;;17.81;72.48;102140.03;4994327;28;97910;-27
2023/08/17 03:22:33;;;;;;;3.92;0.60;;;;;;;17.83;71.94;102137.22;4994270;28;97884;-26
2023/08/17 03:24:58;;;;;;;2.40;0.90;;;;;;;17.83;71.96;102137.22;4992464;28;96590;-26
2023/08/17 03:27:24;;;;;;;0.50;0.50;;;;;;;17.85;72.21;102128.84;4994496;28;96820;-26
2023/08/17 03:29:50;;;;;;;1.85;0.85;;;;;;;17.86;71.86;102133.38;4992446;28;100028;-27
2023/08/17 03:32:16;;;;;;;1.83;0.70;;;;;;;17.87;71.87;102135.09;4992671;28;100779;-27
2023/08/17 03:34:41;;;;;;;1.17;0.80;;;;;;;17.90;71.97;102135.78;4994546;28;96566;-27
2023/08/17 03:37:07;;;;;;;0.93;0.60;;;;;;;17.86;71.95;102130.63;4994101;28;96834;-27
2023/08/17 03:39:32;;;;;;;1.65;0.90;;;;;;;17.87;72.13;102140.59;4993973;28;99874;-27
2023/08/17 03:41:57;;;;;;;3.17;1.00;;;;;;;17.87;71.57;102135.09;4994452;28;97278;-26
2023/08/17 03:44:23;;;;;;;1.67;0.85;;;;;;;17.82;71.97;102139.03;4993931;28;96637;-26
2023/08/17 03:46:48;;;;;;;0.80;0.55;;;;;;;17.79;71.27;102141.13;4994634;28;96826;-26
2023/08/17 03:49:14;;;;;;;1.45;0.90;;;;;;;17.74;71.99;102125.00;4993492;28;97307;-26
2023/08/17 03:51:39;;;;;;;3.60;0.88;;;;;;;17.73;71.95;102123.25;4992373;28;99597;-26
2023/08/17 03:54:05;;;;;;;2.00;0.88;;;;;;;17.72;72.20;102128.84;4994081;28;96543;-27
2023/08/17 03:56:30;;;;;;;1.23;0.90;;;;;;;17.65;72.38;102120.16;4994755;28;96800;-27
2023/08/17 03:58:56;;;;;;;2.95;0.90;;;;;;;17.65;72.60;102119.28;4997535;28;97363;-27
2023/08/17 04:01:21;;;;;;;2.28;0.88;;;;;;;17.66;73.36;102121.91;4996905;28;99623;-27
2023/08/17 04:03:46;;;;;;;1.60;0.85;;;;;;;17.63;72.76;102120.25;4997534;28;96603;-27
2023/08/17 04:06:12;;;;;;;1.58;0.60;;;;;;;17.64;72.33;102129.38;4998005;28;96739;-28
2023/08/17 04:08:38;;;;;;;4.47;0.77;;;;;;;17.62;72.63;102121.25;4996882;28;97925;-26
2023/08/17 04:11:04;;;;;;;0.65;0.60;;;;;;;17.66;72.23;102130.13;4996167;28;97994;-27
2023/08/17 04:13:30;;;;;;;5.43;1.13;;;;;;;17.57;73.16;102128.06;4995310;28;96721;-27
2023/08/17 04:15:56;;;;;;;1.15;0.55;;;;;;;17.60;72.80;102139.66;4995894;28;96894;-27
2023/08/17 04:18:21;;;;;;;1.30;0.75;;;;;;;17.60;72.59;102127.84;4995590;28;98524;-26
2023/08/17 04:20:46;;;;;;;1.60;0.70;;;;;;;17.54;72.94;102131.00;4996934;28;97926;-26
2023/08/17 04:23:12;;;;;;;1.60;1.02;;;;;;;17.55;73.16;102130.91;4997205;28;96576;-26
2023/08/17 04:25:37;;;;;;;5.88;0.90;;;;;;;17.65;73.29;102141.22;4995697;28;96915;-26
2023/08/17 04:28:03;;;;;;;0.88;0.60;;;;;;;17.58;72.65;102135.28;4996840;28;97514;-26
2023/08/17 04:30:28;;;;;;;2.55;0.85;;;;;;;17.56;72.82;102140.88;4996917;28;97807;-26
2023/08/17 04:32:54;;;;;;;2.15;1.00;;;;;;;17.58;73.12;102144.38;4997204;28;96632;-26
2023/08/17 04:35:20;;;;;;;0.65;0.65;;;;;;;17.54;73.21;102141.97;4996788;28;96888;-26
2023/08/17 04:37:46;;;;;;;4.22;0.82;;;;;;;17.50;73.26;102137.72;4996039;28;98125;-27
2023/08/17 04:40:12;;;;;;;3.60;0.68;;;;;;;17.53;73.51;102137.47;4995078;28;101218;-26
2023/08/17 04:42:38;;;;;;;1.05;0.70;;;;;;;17.50;73.63;102135.84;4995434;28;96480;-26
2023/08/17 04:45:03;;;;;;;1.60;0.68;;;;;;;17.51;73.30;102134.84;4996764;28;96766;-26
2023/08/17 04:47:29;;;;;;;2.38;0.80;;;;;;;17.53;73.53;102145.69;4996168;28;99280;-27
2023/08/17 04:49:54;;;;;;;0.90;0.45;;;;;;;17.54;73.42;102139.22;4996112;28;101897;-26
2023/08/17 04:52:19;;;;;;;2.10;0.73;;;;;;;17.52;73.11;102138.44;4996317;28;96580;-26
2023/08/17 04:54:45;;;;;;;3.42;0.82;;;;;;;17.49;73.81;102138.66;4997009;28;96647;-26
2023/08/17 04:57:10;;;;;;;1.27;0.40;;;;;;;17.45;74.06;102137.13;4996390;28;97879;-26
2023/08/17 04:59:36;;;;;;;2.35;0.80;;;;;;;17.50;73.59;102144.06;4996403;28;97406;-26
2023/08/17 05:02:01;;;;;;;1.67;0.95;;;;;;;17.47;74.34;102130.59;4996020;28;96581;-27
2023/08/17 05:04:27;;;;;;;2.42;0.70;;;;;;;17.43;73.84;102128.16;4996688;28;96769;-26
2023/08/17 05:06:52;;;;;;;1.40;0.60;;;;;;;17.46;73.69;102125.19;4995905;28;99637;-27
2023/08/17 05:09:17;;;;;;;1.73;0.65;;;;;;;17.46;73.66;102126.06;4995237;28;97743;-26
2023/08/17 05:11:43;;;;;;;2.40;1.05;;;;;;;17.52;74.45;102130.22;4994859;28;96544;-27
2023/08/17 05:14:09;;;;;;;1.15;0.60;;;;;;;17.53;74.02;102130.13;4995937;28;97303;-26
2023/08/17 05:16:34;;;;;;;0.55;0.30;;;;;;;17.52;73.08;102122.00;4995917;28;99901;-26
2023/08/17 05:18:59;;;;;;;1.65;0.80;;;;;;;17.49;73.65;102125.84;4996076;28;99718;-26
2023/08/17 05:21:25;;;;;;;0.98;0.40;;;;;;;17.50;73.85;102143.19;4996211;28;96636;-27
2023/08/17 05:23:51;;;;;;;5.18;0.77;;;;;;;17.58;73.38;102149.84;4996315;28;96802;-26
2023/08/17 05:26:16;;;;;;;2.65;0.75;;;;;;;17.57;73.51;102141.78;4995152;28;99237;-26
2023/08/17 05:28:43;;;;;;;0.57;0.40;;;;;;;17.54;73.56;102142.88;4993987;28;100792;-26
2023/08/17 05:31:09;;;;;;;1.40;0.77;;;;;;;17.57;73.91;102136.28;4996273;28;96923;-27
2023/08/17 05:33:34;;;;;;;2.05;0.60;;;;;;;17.49;73.69;102127.72;4994671;28;96851;-26
2023/08/17 05:36:00;;;;;;;2.00;0.70;;;;;;;17.53;73.38;102138.34;4994646;28;97901;-27
2023/08/17 05:38:25;;;;;;;1.95;0.40;;;;;;;17.60;73.58;102142.41;4995449;28;97830;-26
2023/08/17 05:40:58;;;;;;;1.48;0.52;;;;;;;17.62;73.04;102142.31;4996097;28;96555;-27
2023/08/17 05:43:24;;;;;;;3.38;0.60;;;;;;;17.59;73.25;102148.00;4996247;28;96739;-26
2023/08/17 05:45:50;;;;;;;3.53;0.70;;;;;;;17.60;73.41;102141.53;4994073;28;100706;-26
2023/08/17 05:48:15;;;;;;;0.30;0.30;;;;;;;17.60;73.45;102138.81;4995654;28;97292;-27
2023/08/17 05:50:42;;;;;;;0.63;0.63;;;;;;;17.60;73.36;102141.53;4995450;28;96478;-27
2023/08/17 05:53:07;;;;;;;0.85;0.45;;;;;;;17.56;73.64;102149.09;4994206;28;96745;-27
2023/08/17 05:55:33;;;;;;;3.30;0.50;;;;;;;17.58;73.38;102138.03;4995206;28;97935;-27
2023/08/17 05:57:58;;;;;;;0.65;0.50;;;;;;;17.60;73.23;102139.66;4995449;28;97814;-26
2023/08/17 06:00:24;;;;;;;3.30;1.00;;;;;;;17.60;73.45;102152.50;4995568;28;96601;-27
2023/08/17 06:02:51;;;;;;;3.90;0.98;;;;;;;17.56;73.45;102140.88;4995652;28;96770;-26
2023/08/17 06:05:17;;;;;;;1.10;0.50;;;;;;;17.60;73.18;102138.81;4992379;28;100938;-29
2023/08/17 06:07:42;;;;;;;2.50;1.10;;;;;;;17.61;73.28;102160.63;4993998;28;101299;-26
2023/08/17 06:10:09;;;;;;;1.70;0.75;;;;;;;17.60;73.72;102147.88;4995129;28;96558;-26
2023/08/17 06:12:34;;;;;;;0.70;0.60;;;;;;;17.67;73.60;102144.72;4994026;28;98572;-27
2023/08/17 06:15:01;;;;;;;1.98;0.60;;;;;;;17.64;73.37;102143.09;4994686;28;97967;-27
2023/08/17 06:17:27;;;;;;;5.15;0.80;;;;;;;17.67;73.96;102145.59;4993697;28;101676;-26
2023/08/17 06:19:52;;;;;;;1.95;0.70;;;;;;;17.67;73.74;102145.59;4993410;28;96624;-28
2023/08/17 06:22:17;;;;;;;1.63;0.73;;;;;;;17.76;73.52;102157.78;4992470;28;97100;-27
2023/08/17 06:24:43;;;;;;;1.23;0.60;;;;;;;17.69;73.32;102146.38;4992670;28;100643;-28
2023/08/17 06:27:08;;;;;;;2.75;0.98;;;;;;;17.73;73.51;102150.66;4992562;28;97766;-29
2023/08/17 06:29:33;;;;;;;2.17;0.70;;;;;;;17.77;73.84;102157.66;4993094;28;97075;-31
2023/08/17 06:31:59;;;;;;;1.70;0.47;;;;;;;17.85;73.32;102164.50;4993372;28;96944;-28
2023/08/17 06:34:24;;;;;;;0.98;0.50;;;;;;;17.87;73.58;102157.03;4992369;28;99204;-29
2023/08/17 06:37:01;;;;;;;2.45;1.00;;;;;;;17.90;73.79;102163.19;4994914;28;97730;-26
2023/08/17 06:39:27;;;;;;;1.77;0.68;;;;;;;17.89;73.66;102160.56;4994405;28;96693;-26
2023/08/17 06:41:52;;;;;;;3.30;1.00;;;;;;;17.91;73.34;102147.63;4993550;28;96871;-26
2023/08/17 06:44:18;;;;;;;3.25;0.82;;;;;;;17.98;72.94;102148.94;4994708;28;97400;-28
2023/08/17 06:46:43;;;;;;;0.98;0.40;;;;;;;18.04;73.15;102154.84;4994777;28;97286;-26
2023/08/17 06:49:10;;;;;;;4.28;0.70;;;;;;;18.10;72.93;102153.53;4995084;28;96959;-27
2023/08/17 06:51:36;;;;;;;3.50;0.75;;;;;;;18.16;72.85;102158.56;4993491;28;96823;-27
2023/08/17 06:54:01;;;;;;;0.95;0.65;;;;;;;18.13;72.65;102158.78;4994489;28;98048;-27
2023/08/17 06:56:26;;;;;;;1.52;0.80;;;;;;;18.09;72.53;102156.38;4994981;28;97805;-27
2023/08/17 06:58:52;;;;;;;1.75;0.73;;;;;;;18.11;73.04;102149.78;4993297;28;96588;-26
2023/08/17 07:01:17;;;;;;;2.17;0.50;;;;;;;18.16;73.37;102163.16;4994992;28;96777;-26
2023/08/17 07:03:42;;;;;;;1.30;0.63;;;;;;;18.19;72.61;102155.59;4993730;28;99416;-27
2023/08/17 07:06:09;;;;;;;2.90;0.85;;;;;;;18.27;72.92;102155.03;4994272;28;99542;-27
2023/08/17 07:08:34;;;;;;;1.42;0.70;;;;;;;18.39;72.17;102156.00;4992731;28;96789;-26
2023/08/17 07:11:00;;;;;;;5.22;0.75;;;;;;;18.61;72.31;102164.38;4994346;28;96795;-26
2023/08/17 07:13:25;;;;;;;1.35;0.63;;;;;;;18.93;71.28;102158.38;4994456;28;97805;-28
2023/08/17 07:15:51;;;;;;;2.70;1.00;;;;;;;19.16;70.83;102147.47;4994374;28;97782;-28
2023/08/17 07:18:16;;;;;;;0.98;0.82;;;;;;;19.47;69.74;102151.47;4994886;28;96539;-26
2023/08/17 07:20:41;;;;;;;1.98;0.40;;;;;;;19.67;69.60;102153.53;4995039;28;96752;-26
2023/08/17 07:23:07;;;;;;;2.78;0.85;;;;;;;19.72;69.49;102161.44;4994223;28;97492;-27
2023/08/17 07:25:32;;;;;;;1.63;0.77;;;;;;;19.91;69.10;102161.72;4993997;28;99312;-26
2023/08/17 07:27:58;;;;;;;2.67;1.02;;;;;;;20.12;68.53;102164.63;4993837;28;96489;-26
2023/08/17 07:30:23;;;;;;;1.17;0.82;;;;;;;20.08;68.43;102151.22;4994352;28;96824;-26
2023/08/17 07:32:49;;;;;;;3.55;0.63;;;;;;;20.08;68.60;102154.00;4996687;28;98072;-27
2023/08/17 07:35:14;;;;;;;2.53;0.98;;;;;;;20.17;68.35;102166.13;4997409;28;99075;-26
2023/08/17 07:37:39;;;;;;;3.67;1.00;;;;;;;20.10;68.49;102155.63;4997765;28;96617;-26
2023/08/17 07:40:06;;;;;;;2.40;0.70;;;;;;;20.00;68.93;102157.38;4997808;28;96768;-27
2023/08/17 07:42:32;;;;;;;2.67;0.93;;;;;;;19.92;69.02;102163.47;4996107;28;101108;-27
2023/08/17 07:44:57;;;;;;;1.75;0.70;;;;;;;19.80;69.49;102163.56;4997902;28;97162;-27
2023/08/17 07:47:23;;;;;;;1.42;0.75;;;;;;;19.79;69.87;102161.84;4997738;28;96486;-26
2023/08/17 07:49:48;;;;;;;1.17;0.80;;;;;;;19.89;69.10;102157.34;4997832;28;96780;-26
2023/08/17 07:52:13;;;;;;;3.30;0.85;;;;;;;20.03;69.59;102151.59;4996665;28;97399;-27
2023/08/17 07:54:39;;;;;;;1.02;0.77;;;;;;;20.30;68.60;102159.47;4997142;28;99246;-26
2023/08/17 07:57:04;;;;;;;1.25;0.75;;;;;;;20.47;67.52;102146.19;4997570;28;96618;-27
2023/08/17 07:59:30;;;;;;;2.45;0.80;;;;;;;20.44;67.09;102155.59;4997570;28;96805;-27
2023/08/17 08:01:55;;;;;;;3.90;1.00;;;;;;;20.42;67.66;102151.22;4997400;28;98054;-27
2023/08/17 08:04:21;;;;;;;1.75;0.95;;;;;;;20.41;67.84;102155.00;4996938;28;99892;-26
2023/08/17 08:06:46;;;;;;;1.85;0.80;;;;;;;20.57;67.86;102144.50;4997224;28;96624;-27
2023/08/17 08:09:12;;;;;;;2.35;1.20;;;;;;;20.90;66.65;102149.00;4997356;28;96810;-27
2023/08/17 08:11:37;;;;;;;1.45;0.88;;;;;;;21.05;65.88;102159.75;4996282;28;99501;-26
2023/08/17 08:14:03;;;;;;;1.23;0.85;;;;;;;21.27;65.35;102167.06;4997317;28;97500;-27
2023/08/17 08:16:32;;;;;;;1.48;0.75;;;;;;;21.37;65.09;102152.34;4995476;28;96682;-26
2023/08/17 08:18:57;;;;;;;3.97;1.02;;;;;;;21.57;65.24;102144.22;4997062;28;96869;-28
2023/08/17 08:21:23;;;;;;;3.47;1.15;;;;;;;21.70;64.56;102138.53;4996603;28;99422;-26
2023/08/17 08:23:48;;;;;;;2.10;0.80;;;;;;;21.79;63.88;102134.97;4996844;28;98041;-26
2023/08/17 08:26:14;;;;;;;1.92;0.85;;;;;;;21.81;63.78;102138.47;4997278;28;96527;-27
2023/08/17 08:28:39;;;;;;;4.07;1.08;;;;;;;21.86;64.18;102136.16;4996932;28;96828;-26
2023/08/17 08:31:05;;;;;;;1.52;0.80;;;;;;;21.93;63.63;102131.84;4996794;28;97337;-27
2023/08/17 08:33:30;;;;;;;1.95;0.93;;;;;;;21.93;63.10;102134.59;4997289;28;97307;-26
2023/08/17 08:35:56;;;;;;;4.32;1.15;;;;;;;22.00;63.68;102138.56;4997070;28;96582;-27
2023/08/17 08:38:21;;;;;;;1.20;0.75;;;;;;;22.05;63.21;102121.59;4996613;28;96867;-27
2023/08/17 08:40:47;;;;;;;3.22;0.85;;;;;;;22.21;63.09;102132.13;4996364;28;97957;-26
2023/08/17 08:43:14;;;;;;;2.35;1.10;;;;;;;22.36;62.48;102125.22;4994050;28;101267;-26
2023/08/17 08:45:41;;;;;;;2.17;0.80;;;;;;;22.62;62.67;102121.94;4995524;28;96607;-28
2023/08/17 08:48:08;;;;;;;1.23;0.93;;;;;;;22.85;62.06;102125.31;4995179;28;97892;-27
2023/08/17 08:50:36;;;;;;;0.98;0.55;;;;;;;22.94;61.87;102113.41;4995016;28;100830;-27
2023/08/17 08:53:05;;;;;;;4.60;0.80;;;;;;;23.14;61.33;102117.06;4994920;28;101189;-26
2023/08/17 08:55:39;;;;;;;4.55;0.73;;;;;;;23.26;60.93;102118.69;4996575;28;96479;-27
2023/08/17 08:58:05;;;;;;;3.53;1.23;;;;;;;23.22;60.00;102121.91;4996920;28;96723;-27
2023/08/17 09:00:32;;;;;;;1.92;0.93;;;;;;;23.32;60.34;102117.22;4996398;28;97546;-26
2023/08/17 09:02:59;;;;;;;3.17;0.93;;;;;;;23.36;60.93;102107.63;4995962;28;98940;-27
2023/08/17 09:05:25;;;;;;;4.20;0.98;;;;;;;23.48;60.19;102111.97;4994654;28;96482;-26
2023/08/17 09:07:52;;;;;;;2.70;1.08;;;;;;;23.52;60.11;102110.63;4978461;28;96755;-27
2023/08/17 09:10:17;;;;;;;2.25;0.85;;;;;;;23.32;59.92;102107.03;4994601;28;100621;-27
2023/08/17 09:12:49;;;;;;;1.95;0.90;;;;;;;23.18;59.08;102110.25;4995848;28;97740;-26
2023/08/17 09:15:15;;;;;;;2.33;0.95;;;;;;;23.04;60.86;102106.00;4994964;28;96673;-26
2023/08/17 09:17:40;;;;;;;1.17;0.70;;;;;;;22.82;61.17;102107.13;4996380;28;96786;-28
2023/08/17 09:20:07;;;;;;;1.63;0.80;;;;;;;22.89;59.88;102105.53;4996086;28;97892;-26
2023/08/17 09:22:39;;;;;;;1.85;0.80;;;;;;;22.74;60.94;102106.09;4994994;28;100865;-26
2023/08/17 09:25:05;;;;;;;2.67;1.35;;;;;;;22.66;61.08;102104.94;4996264;28;96773;-26
2023/08/17 09:27:32;;;;;;;1.40;0.73;;;;;;;22.43;61.35;102107.09;4995050;28;96884;-27
2023/08/17 09:30:09;;;;;;;1.25;1.05;;;;;;;22.33;61.91;102105.28;4993884;28;101018;-27
2023/08/17 09:32:35;;;;;;;1.88;0.90;;;;;;;22.37;62.04;102110.38;4994315;28;101512;-26
2023/08/17 09:35:01;;;;;;;2.55;0.90;;;;;;;22.41;61.48;102100.81;4995955;28;96537;-26
2023/08/17 09:37:27;;;;;;;1.15;1.00;;;;;;;22.47;61.90;102107.66;4994424;28;96915;-27
2023/08/17 09:39:53;;;;;;;2.08;0.80;;;;;;;22.63;61.44;102096.94;4995825;28;97497;-26
2023/08/17 09:42:19;;;;;;;4.18;1.10;;;;;;;22.77;60.87;102100.31;4994256;28;100922;-27
2023/08/17 09:44:45;;;;;;;5.10;0.93;;;;;;;22.90;60.47;102096.22;4994259;28;96839;-28
2023/08/17 09:47:11;;;;;;;0.77;0.70;;;;;;;23.08;60.39;102103.84;4996289;28;96748;-26
2023/08/17 09:49:36;;;;;;;2.38;0.95;;;;;;;23.11;60.05;102090.59;4995637;28;97361;-28
2023/08/17 09:52:04;;;;;;;3.22;0.85;;;;;;;23.01;60.25;102083.34;4995975;28;97175;-26
2023/08/17 09:54:31;;;;;;;1.13;0.88;;;;;;;22.92;60.31;102086.94;4993827;28;96655;-27
2023/08/17 09:56:58;;;;;;;2.05;1.10;;;;;;;22.79;60.36;102082.56;4994286;28;96916;-26
2023/08/17 09:59:25;;;;;;;2.90;1.17;;;;;;;22.54;61.15;102072.06;4993931;28;100578;-27
2023/08/17 10:01:51;;;;;;;2.85;1.05;;;;;;;22.69;61.11;102078.91;4993931;28;101202;-27
2023/08/17 10:04:22;;;;;;;3.75;0.93;;;;;;;23.03;59.55;102082.16;4994201;28;96551;-26
2023/08/17 10:06:51;;;;;;;5.63;0.87;;;;;;;23.07;60.31;102088.25;4995534;28;96711;-28
2023/08/17 10:09:24;;;;;;;7.97;1.40;;;;;;;22.77;60.31;102092.88;4993638;28;99090;-27
2023/08/17 10:11:52;;;;;;;7.72;1.30;;;;;;;22.69;61.04;102092.72;4993155;28;101346;-26
2023/08/17 10:14:23;;;;;;;4.63;1.08;;;;;;;22.66;60.87;102087.50;4994152;28;96545;-26
2023/08/17 10:17:02;;;;;;;3.08;1.15;;;;;;;22.66;61.62;102085.59;4994122;28;96742;-26
2023/08/17 10:19:48;;;;;;;2.78;1.17;;;;;;;22.91;60.75;102083.31;4994577;28;99469;-26
2023/08/17 10:22:42;;;;;;;2.72;1.25;;;;;;;22.77;61.32;102079.06;4995015;28;99205;-27
2023/08/17 10:25:11;;;;;;;2.15;1.30;;;;;;;22.51;61.51;102069.59;4995578;28;96627;-26
2023/08/17 10:27:37;;;;;;;1.40;1.00;;;;;;;22.48;61.97;102068.88;4993884;28;96862;-26
2023/08/17 10:30:03;;;;;;;3.40;1.23;;;;;;;22.36;62.66;102071.91;4993354;28;99381;-27
2023/08/17 10:32:29;;;;;;;4.85;1.50;;;;;;;22.40;62.63;102065.06;4994604;28;99553;-26
2023/08/17 10:34:55;;;;;;;1.48;0.93;;;;;;;22.57;62.11;102060.72;4993492;28;96736;-26
2023/08/17 10:37:21;;;;;;;3.03;1.02;;;;;;;22.60;62.19;102075.13;4993702;28;96694;-27
2023/08/17 10:39:48;;;;;;;4.40;1.63;;;;;;;22.47;62.01;102066.22;4993427;28;101105;-26
2023/08/17 10:42:14;;;;;;;2.03;0.85;;;;;;;22.43;62.62;102060.13;4993403;28;100926;-26
2023/08/17 10:44:41;;;;;;;3.08;1.38;;;;;;;22.56;62.28;102073.66;4994317;28;96990;-26
2023/08/17 10:47:23;;;;;;;2.22;1.30;;;;;;;22.90;62.08;102068.59;4993529;28;96856;-26
2023/08/17 10:50:01;;;;;;;1.98;1.20;;;;;;;22.94;61.77;102071.09;4994511;28;99522;-27
2023/08/17 10:52:30;;;;;;;4.43;1.33;;;;;;;22.65;62.20;102072.81;4993126;28;98925;-27
2023/08/17 10:54:56;;;;;;;6.10;1.52;;;;;;;22.65;62.50;102075.56;4993478;28;96634;-26
2023/08/17 10:57:34;;;;;;;4.57;1.73;;;;;;;22.54;62.21;102080.34;4994902;28;96813;-27
2023/08/17 11:00:33;;;;;;;3.08;1.30;;;;;;;22.51;62.63;102075.13;4993035;28;101188;-27
2023/08/17 11:03:01;;;;;;;2.92;1.23;;;;;;;22.55;62.52;102060.00;4993570;28;97923;-27
2023/08/17 11:05:46;;;;;;;3.00;1.50;;;;;;;22.61;62.61;102064.94;4993341;28;96741;-26
2023/08/17 11:08:27;;;;;;;4.50;1.35;;;;;;;22.64;62.46;102053.59;4992586;28;96966;-27
2023/08/17 11:11:05;;;;;;;3.42;1.23;;;;;;;22.72;62.09;102055.69;4993810;28;97472;-26
2023/08/17 11:13:36;;;;;;;2.15;1.05;;;;;;;22.74;61.98;102071.09;4994340;28;97847;-28
2023/08/17 11:16:04;;;;;;;2.20;1.20;;;;;;;22.72;62.74;102056.53;4993340;28;96533;-26
2023/08/17 11:18:31;;;;;;;2.50;1.25;;;;;;;22.78;62.30;102055.06;4993237;28;96909;-26
2023/08/17 11:20:56;;;;;;;2.15;1.13;;;;;;;23.00;61.74;102054.84;4992723;28;100941;-28
2023/08/17 11:23:29;;;;;;;2.05;0.95;;;;;;;23.11;61.13;102045.50;4994257;28;97404;-27
2023/08/17 11:25:54;;;;;;;2.33;1.27;;;;;;;23.10;60.94;102049.28;4993045;28;96783;-26
2023/08/17 11:28:21;;;;;;;2.15;1.02;;;;;;;23.10;61.41;102049.28;4994822;28;97174;-27
2023/08/17 11:30:57;;;;;;;2.13;0.95;;;;;;;23.13;61.07;102046.22;4994132;28;97556;-26
2023/08/17 11:33:22;;;;;;;3.67;1.25;;;;;;;23.29;60.74;102043.72;4992686;28;100963;-27
2023/08/17 11:35:49;;;;;;;3.10;0.95;;;;;;;23.29;61.14;102059.47;4993995;28;96591;-26
2023/08/17 11:38:15;;;;;;;3.60;1.20;;;;;;;23.45;60.78;102047.75;4994012;28;96827;-28
2023/08/17 11:40:41;;;;;;;2.95;1.00;;;;;;;23.57;59.91;102049.31;4993963;28;98936;-26
2023/08/17 11:43:06;;;;;;;3.33;1.08;;;;;;;23.97;59.54;102050.94;4993831;28;98717;-27
2023/08/17 11:45:32;;;;;;;2.10;1.05;;;;;;;24.21;58.82;102042.06;4994582;28;96601;-27
2023/08/17 11:47:57;;;;;;;2.00;1.02;;;;;;;24.23;58.89;102031.72;4994104;28;96852;-27
2023/08/17 11:50:24;;;;;;;3.80;1.20;;;;;;;24.42;58.13;102030.72;4993900;28;97347;-27
2023/08/17 11:52:49;;;;;;;3.58;1.10;;;;;;;24.62;57.91;102042.56;4994418;28;97424;-26
2023/08/17 11:55:20;;;;;;;4.95;1.30;;;;;;;24.82;58.00;102036.88;4994227;28;96629;-26
2023/08/17 11:57:46;;;;;;;1.48;1.15;;;;;;;24.72;58.22;102031.44;4994128;28;96689;-26
2023/08/17 12:00:18;;;;;;;1.60;1.08;;;;;;;24.51;58.52;102027.06;4991748;28;101093;-27
2023/08/17 12:02:46;;;;;;;1.63;1.00;;;;;;;24.44;58.76;102038.88;4994078;28;97806;-26
2023/08/17 12:05:12;;;;;;;3.28;1.23;;;;;;;24.16;59.49;102028.69;4992533;28;96779;-27
2023/08/17 12:07:37;;;;;;;1.92;0.95;;;;;;;23.95;59.76;102034.53;4994216;28;96908;-27
2023/08/17 12:10:04;;;;;;;4.65;1.48;;;;;;;23.71;60.38;102031.38;4993240;28;99011;-27
2023/08/17 12:12:29;;;;;;;2.83;1.20;;;;;;;23.60;60.79;102037.97;4993230;28;97302;-27
2023/08/17 12:14:57;;;;;;;3.92;1.33;;;;;;;23.43;60.89;102035.97;4993483;28;96606;-26
2023/08/17 12:17:22;;;;;;;2.55;1.20;;;;;;;23.30;60.65;102039.06;4994599;28;96778;-27
2023/08/17 12:19:54;;;;;;;1.90;1.20;;;;;;;23.24;61.61;102040.53;4996065;28;98402;-26
2023/08/17 12:22:24;;;;;;;5.25;1.40;;;;;;;23.19;61.43;102034.59;4995371;28;101181;-26
2023/08/17 12:24:49;;;;;;;2.13;1.38;;;;;;;23.20;61.46;102050.16;4996704;28;96611;-26
2023/08/17 12:27:14;;;;;;;3.30;1.65;;;;;;;23.06;62.10;102042.31;4997388;28;96742;-27
2023/08/17 12:29:50;;;;;;;3.58;1.73;;;;;;;23.01;61.77;102034.44;4996678;28;98171;-27
2023/08/17 12:32:20;;;;;;;2.80;1.60;;;;;;;23.00;61.53;102038.25;4995317;28;101206;-26